sensor_id;sensor_type;location;lat;lon;timestamp;temperature;humidity
17845;DHT22;9047;53.486;10.218;2023-12-20T00:01:57;5.70;99.90
17845;DHT22;9047;53.486;10.218;2023-12-20T00:04:30;5.70;99.90
17845;DHT22;9047;53.486;10.218;2023-12-20T00:07:04;5.60;99.90
17845;DHT22;9047;53.486;10.218;2023-12-20T00:09:52;5.60;99.90
17845;DHT22;9047;53.486;10.218;2023-12-20T00:12:23;5.50;99.90
17845;DHT22;9047;53.486;10.218;2023-12-20T00:14:56;5.50;99.90
17845;DHT22;9047;53.486;10.218;2023-12-20T00:17:27;5.50;99.90
17845;DHT22;9047;53.486;10.218;2023-12-20T00:20:01;5.40;99.90
17845;DHT22;9047;53.486;10.218;2023-12-20T00:22:32;5.40;99.90
17845;DHT22;9047;53.486;10.218;2023-12-20T00:25:32;5.40;99.90
17845;DHT22;9047;53.486;10.218;2023-12-20T00:28:01;5.30;99.90
17845;DHT22;9047;53.486;10.218;2023-12-20T00:30:35;5.30;99.90
17845;DHT22;9047;53.486;10.218;2023-12-20T00:33:16;5.30;99.90
17845;DHT22;9047;53.486;10.218;2023-12-20T00:35:52;5.20;99.90
17845;DHT22;9047;53.486;10.218;2023-12-20T00:38:25;5.20;99.90
17845;DHT22;9047;53.486;10.218;2023-12-20T00:41:12;5.20;99.90
17845;DHT22;9047;53.486;10.218;2023-12-20T00:43:40;5.10;99.90
17845;DHT22;9047;53.486;10.218;2023-12-20T00:46:13;5.10;99.90
17845;DHT22;9047;53.486;10.218;2023-12-20T00:48:54;5.10;99.90
17845;DHT22;9047;53.486;10.218;2023-12-20T00:51:37;5.20;99.90
17845;DHT22;9047;53.486;10.218;2023-12-20T00:54:10;5.20;99.90
17845;DHT22;9047;53.486;10.218;2023-12-20T00:56:51;5.30;99.90
17845;DHT22;9047;53.486;10.218;2023-12-20T00:59:31;5.30;99.90
17845;DHT22;9047;53.486;10.218;2023-12-20T01:02:01;5.40;99.90
17845;DHT22;9047;53.486;10.218;2023-12-20T01:04:37;5.40;99.90
17845;DHT22;9047;53.486;10.218;2023-12-20T01:07:05;5.50;99.90
17845;DHT22;9047;53.486;10.218;2023-12-20T01:09:39;5.60;99.90
17845;DHT22;9047;53.486;10.218;2023-12-20T01:12:10;5.60;99.90
17845;DHT22;9047;53.486;10.218;2023-12-20T01:14:40;5.70;99.90
17845;DHT22;9047;53.486;10.218;2023-12-20T01:17:08;5.70;99.90
17845;DHT22;9047;53.486;10.218;2023-12-20T01:19:35;5.60;99.90
17845;DHT22;9047;53.486;10.218;2023-12-20T01:22:04;5.70;99.90
17845;DHT22;9047;53.486;10.218;2023-12-20T01:24:32;5.70;99.90
17845;DHT22;9047;53.486;10.218;2023-12-20T01:27:00;5.70;99.90
17845;DHT22;9047;53.486;10.218;2023-12-20T01:29:33;5.70;99.90
17845;DHT22;9047;53.486;10.218;2023-12-20T01:32:00;5.70;99.90
17845;DHT22;9047;53.486;10.218;2023-12-20T01:34:34;5.60;99.90
17845;DHT22;9047;53.486;10.218;2023-12-20T01:37:01;5.60;99.90
17845;DHT22;9047;53.486;10.218;2023-12-20T01:39:29;5.50;99.90
17845;DHT22;9047;53.486;10.218;2023-12-20T01:41:56;5.40;99.90
17845;DHT22;9047;53.486;10.218;2023-12-20T01:44:24;5.40;99.90
17845;DHT22;9047;53.486;10.218;2023-12-20T01:46:54;5.30;99.90
17845;DHT22;9047;53.486;10.218;2023-12-20T01:49:21;5.20;99.90
17845;DHT22;9047;53.486;10.218;2023-12-20T01:51:49;5.10;99.90
17845;DHT22;9047;53.486;10.218;2023-12-20T01:54:19;5.10;99.90
17845;DHT22;9047;53.486;10.218;2023-12-20T01:56:46;5.10;99.90
17845;DHT22;9047;53.486;10.218;2023-12-20T01:59:15;5.10;99.90
17845;DHT22;9047;53.486;10.218;2023-12-20T02:01:42;5.20;99.90
17845;DHT22;9047;53.486;10.218;2023-12-20T02:04:11;5.20;99.90
17845;DHT22;9047;53.486;10.218;2023-12-20T02:06:39;5.20;99.90
17845;DHT22;9047;53.486;10.218;2023-12-20T02:09:07;5.10;99.90
17845;DHT22;9047;53.486;10.218;2023-12-20T02:11:34;5.10;99.90
17845;DHT22;9047;53.486;10.218;2023-12-20T02:14:02;5.20;99.90
17845;DHT22;9047;53.486;10.218;2023-12-20T02:16:29;5.20;99.90
17845;DHT22;9047;53.486;10.218;2023-12-20T02:18:56;5.20;99.90
17845;DHT22;9047;53.486;10.218;2023-12-20T02:21:32;5.30;99.90
17845;DHT22;9047;53.486;10.218;2023-12-20T02:24:01;5.30;99.90
17845;DHT22;9047;53.486;10.218;2023-12-20T02:26:31;5.20;99.90
17845;DHT22;9047;53.486;10.218;2023-12-20T02:29:00;5.20;99.90
17845;DHT22;9047;53.486;10.218;2023-12-20T02:31:27;5.20;99.90
17845;DHT22;9047;53.486;10.218;2023-12-20T02:33:55;5.10;99.90
17845;DHT22;9047;53.486;10.218;2023-12-20T02:36:21;5.10;99.90
17845;DHT22;9047;53.486;10.218;2023-12-20T02:38:50;5.10;99.90
17845;DHT22;9047;53.486;10.218;2023-12-20T02:41:17;5.10;99.90
17845;DHT22;9047;53.486;10.218;2023-12-20T02:43:47;5.20;99.90
17845;DHT22;9047;53.486;10.218;2023-12-20T02:46:17;5.10;99.90
17845;DHT22;9047;53.486;10.218;2023-12-20T02:48:44;5.10;99.90
17845;DHT22;9047;53.486;10.218;2023-12-20T02:51:12;5.20;99.90
17845;DHT22;9047;53.486;10.218;2023-12-20T02:53:39;5.30;99.90
17845;DHT22;9047;53.486;10.218;2023-12-20T02:56:11;5.20;99.90
17845;DHT22;9047;53.486;10.218;2023-12-20T02:58:42;5.40;99.90
17845;DHT22;9047;53.486;10.218;2023-12-20T03:01:09;5.40;99.90
17845;DHT22;9047;53.486;10.218;2023-12-20T03:03:39;5.40;99.90
17845;DHT22;9047;53.486;10.218;2023-12-20T03:06:06;5.40;99.90
17845;DHT22;9047;53.486;10.218;2023-12-20T03:08:34;5.50;99.90
17845;DHT22;9047;53.486;10.218;2023-12-20T03:11:01;5.50;99.90
17845;DHT22;9047;53.486;10.218;2023-12-20T03:13:32;5.50;99.90
17845;DHT22;9047;53.486;10.218;2023-12-20T03:15:59;5.50;99.90
17845;DHT22;9047;53.486;10.218;2023-12-20T03:18:26;5.50;99.90
17845;DHT22;9047;53.486;10.218;2023-12-20T03:20:56;5.50;99.90
17845;DHT22;9047;53.486;10.218;2023-12-20T03:23:25;5.40;99.90
17845;DHT22;9047;53.486;10.218;2023-12-20T03:25:54;5.50;99.90
17845;DHT22;9047;53.486;10.218;2023-12-20T03:28:21;5.50;99.90
17845;DHT22;9047;53.486;10.218;2023-12-20T03:30:49;5.50;99.90
17845;DHT22;9047;53.486;10.218;2023-12-20T03:33:16;5.50;99.90
17845;DHT22;9047;53.486;10.218;2023-12-20T03:35:45;5.50;99.90
17845;DHT22;9047;53.486;10.218;2023-12-20T03:38:12;5.50;99.90
17845;DHT22;9047;53.486;10.218;2023-12-20T03:40:39;5.60;99.90
17845;DHT22;9047;53.486;10.218;2023-12-20T03:43:06;5.50;99.90
17845;DHT22;9047;53.486;10.218;2023-12-20T03:45:34;5.50;99.90
17845;DHT22;9047;53.486;10.218;2023-12-20T03:48:05;5.60;99.90
17845;DHT22;9047;53.486;10.218;2023-12-20T03:50:32;5.60;99.90
17845;DHT22;9047;53.486;10.218;2023-12-20T03:52:59;5.70;99.90
17845;DHT22;9047;53.486;10.218;2023-12-20T03:55:26;5.70;99.90
17845;DHT22;9047;53.486;10.218;2023-12-20T03:57:54;5.70;99.90
17845;DHT22;9047;53.486;10.218;2023-12-20T04:00:21;5.70;99.90
17845;DHT22;9047;53.486;10.218;2023-12-20T04:02:48;5.70;99.90
17845;DHT22;9047;53.486;10.218;2023-12-20T04:05:16;5.80;99.90
17845;DHT22;9047;53.486;10.218;2023-12-20T04:07:43;5.80;99.90
17845;DHT22;9047;53.486;10.218;2023-12-20T04:10:10;5.80;99.90
17845;DHT22;9047;53.486;10.218;2023-12-20T04:12:38;5.90;99.90
17845;DHT22;9047;53.486;10.218;2023-12-20T04:15:06;5.90;99.90
17845;DHT22;9047;53.486;10.218;2023-12-20T04:17:37;5.90;99.90
17845;DHT22;9047;53.486;10.218;2023-12-20T04:20:06;5.80;99.90
17845;DHT22;9047;53.486;10.218;2023-12-20T04:22:34;5.90;99.90
17845;DHT22;9047;53.486;10.218;2023-12-20T04:25:02;5.90;99.90
17845;DHT22;9047;53.486;10.218;2023-12-20T04:27:29;6.00;99.90
17845;DHT22;9047;53.486;10.218;2023-12-20T04:30:00;6.00;99.90
17845;DHT22;9047;53.486;10.218;2023-12-20T04:32:29;6.00;99.90
17845;DHT22;9047;53.486;10.218;2023-12-20T04:34:57;6.00;99.90
17845;DHT22;9047;53.486;10.218;2023-12-20T04:37:24;6.00;99.90
17845;DHT22;9047;53.486;10.218;2023-12-20T04:39:53;6.00;99.90
17845;DHT22;9047;53.486;10.218;2023-12-20T04:42:20;6.00;99.90
17845;DHT22;9047;53.486;10.218;2023-12-20T04:44:47;6.00;99.90
17845;DHT22;9047;53.486;10.218;2023-12-20T04:47:17;6.00;99.90
17845;DHT22;9047;53.486;10.218;2023-12-20T04:49:53;6.00;99.90
17845;DHT22;9047;53.486;10.218;2023-12-20T04:52:21;5.90;99.90
17845;DHT22;9047;53.486;10.218;2023-12-20T04:54:53;6.00;99.90
17845;DHT22;9047;53.486;10.218;2023-12-20T04:57:20;6.00;99.90
17845;DHT22;9047;53.486;10.218;2023-12-20T04:59:47;6.00;99.90
17845;DHT22;9047;53.486;10.218;2023-12-20T05:02:15;6.00;99.90
17845;DHT22;9047;53.486;10.218;2023-12-20T05:04:42;6.00;99.90
17845;DHT22;9047;53.486;10.218;2023-12-20T05:07:10;6.00;99.90
17845;DHT22;9047;53.486;10.218;2023-12-20T05:09:37;5.90;99.90
17845;DHT22;9047;53.486;10.218;2023-12-20T05:12:09;6.00;99.90
17845;DHT22;9047;53.486;10.218;2023-12-20T05:14:37;6.00;99.90
17845;DHT22;9047;53.486;10.218;2023-12-20T05:17:05;6.10;99.90
17845;DHT22;9047;53.486;10.218;2023-12-20T05:19:33;6.10;99.90
17845;DHT22;9047;53.486;10.218;2023-12-20T05:22:01;6.10;99.90
17845;DHT22;9047;53.486;10.218;2023-12-20T05:24:28;6.20;99.90
17845;DHT22;9047;53.486;10.218;2023-12-20T05:26:55;6.10;99.90
17845;DHT22;9047;53.486;10.218;2023-12-20T05:29:25;6.20;99.90
17845;DHT22;9047;53.486;10.218;2023-12-20T05:31:53;6.20;99.90
17845;DHT22;9047;53.486;10.218;2023-12-20T05:34:20;6.30;99.90
17845;DHT22;9047;53.486;10.218;2023-12-20T05:36:48;6.30;99.90
17845;DHT22;9047;53.486;10.218;2023-12-20T05:39:17;6.30;99.90
17845;DHT22;9047;53.486;10.218;2023-12-20T05:41:46;6.30;99.90
17845;DHT22;9047;53.486;10.218;2023-12-20T05:44:13;6.30;99.90
17845;DHT22;9047;53.486;10.218;2023-12-20T05:46:41;6.30;99.90
17845;DHT22;9047;53.486;10.218;2023-12-20T05:49:09;6.40;99.90
17845;DHT22;9047;53.486;10.218;2023-12-20T05:51:36;6.30;99.90
17845;DHT22;9047;53.486;10.218;2023-12-20T05:54:04;6.40;99.90
17845;DHT22;9047;53.486;10.218;2023-12-20T05:56:33;6.40;99.90
17845;DHT22;9047;53.486;10.218;2023-12-20T05:59:00;6.40;99.90
17845;DHT22;9047;53.486;10.218;2023-12-20T06:01:29;6.40;99.90
17845;DHT22;9047;53.486;10.218;2023-12-20T06:03:58;6.40;99.90
17845;DHT22;9047;53.486;10.218;2023-12-20T06:06:28;6.50;99.90
17845;DHT22;9047;53.486;10.218;2023-12-20T06:08:56;6.50;99.90
17845;DHT22;9047;53.486;10.218;2023-12-20T06:11:23;6.50;99.90
17845;DHT22;9047;53.486;10.218;2023-12-20T06:13:50;6.50;99.90
17845;DHT22;9047;53.486;10.218;2023-12-20T06:16:18;6.50;99.90
17845;DHT22;9047;53.486;10.218;2023-12-20T06:18:45;6.50;99.90
17845;DHT22;9047;53.486;10.218;2023-12-20T06:21:15;6.50;99.90
17845;DHT22;9047;53.486;10.218;2023-12-20T06:23:42;6.50;99.90
17845;DHT22;9047;53.486;10.218;2023-12-20T06:26:13;6.50;99.90
17845;DHT22;9047;53.486;10.218;2023-12-20T06:28:39;6.50;99.90
17845;DHT22;9047;53.486;10.218;2023-12-20T06:31:07;6.50;99.90
17845;DHT22;9047;53.486;10.218;2023-12-20T06:33:34;6.40;99.90
17845;DHT22;9047;53.486;10.218;2023-12-20T06:36:01;6.40;99.90
17845;DHT22;9047;53.486;10.218;2023-12-20T06:38:30;6.40;99.90
17845;DHT22;9047;53.486;10.218;2023-12-20T06:40:59;6.40;99.90
17845;DHT22;9047;53.486;10.218;2023-12-20T06:43:25;6.40;99.90
17845;DHT22;9047;53.486;10.218;2023-12-20T06:45:56;6.40;99.90
17845;DHT22;9047;53.486;10.218;2023-12-20T06:48:31;6.40;99.90
17845;DHT22;9047;53.486;10.218;2023-12-20T06:51:01;6.50;99.90
17845;DHT22;9047;53.486;10.218;2023-12-20T06:53:30;6.50;99.90
17845;DHT22;9047;53.486;10.218;2023-12-20T06:55:57;6.50;99.90
17845;DHT22;9047;53.486;10.218;2023-12-20T06:58:24;6.50;99.90
17845;DHT22;9047;53.486;10.218;2023-12-20T07:00:52;6.50;99.90
17845;DHT22;9047;53.486;10.218;2023-12-20T07:03:23;6.50;99.90
17845;DHT22;9047;53.486;10.218;2023-12-20T07:05:52;6.50;99.90
17845;DHT22;9047;53.486;10.218;2023-12-20T07:08:19;6.50;99.90
17845;DHT22;9047;53.486;10.218;2023-12-20T07:10:48;6.50;99.90
17845;DHT22;9047;53.486;10.218;2023-12-20T07:13:15;6.50;99.90
17845;DHT22;9047;53.486;10.218;2023-12-20T07:15:45;6.50;99.90
17845;DHT22;9047;53.486;10.218;2023-12-20T07:18:12;6.50;99.90
17845;DHT22;9047;53.486;10.218;2023-12-20T07:20:40;6.40;99.90
17845;DHT22;9047;53.486;10.218;2023-12-20T07:23:09;6.40;99.90
17845;DHT22;9047;53.486;10.218;2023-12-20T07:25:37;6.40;99.90
17845;DHT22;9047;53.486;10.218;2023-12-20T07:28:06;6.30;99.90
17845;DHT22;9047;53.486;10.218;2023-12-20T07:30:34;6.30;99.90
17845;DHT22;9047;53.486;10.218;2023-12-20T07:33:02;6.30;99.90
17845;DHT22;9047;53.486;10.218;2023-12-20T07:35:29;6.40;99.90
17845;DHT22;9047;53.486;10.218;2023-12-20T07:37:57;6.40;99.90
17845;DHT22;9047;53.486;10.218;2023-12-20T07:40:25;6.50;99.90
17845;DHT22;9047;53.486;10.218;2023-12-20T07:42:52;6.60;99.90
17845;DHT22;9047;53.486;10.218;2023-12-20T07:45:21;6.60;99.90
17845;DHT22;9047;53.486;10.218;2023-12-20T07:47:48;6.60;99.90
17845;DHT22;9047;53.486;10.218;2023-12-20T07:50:16;6.60;99.90
17845;DHT22;9047;53.486;10.218;2023-12-20T07:52:45;6.70;99.90
17845;DHT22;9047;53.486;10.218;2023-12-20T07:55:16;6.70;99.90
17845;DHT22;9047;53.486;10.218;2023-12-20T07:57:45;6.80;99.90
17845;DHT22;9047;53.486;10.218;2023-12-20T08:00:12;6.80;99.90
17845;DHT22;9047;53.486;10.218;2023-12-20T08:02:41;6.80;99.90
17845;DHT22;9047;53.486;10.218;2023-12-20T08:05:08;6.80;99.90
17845;DHT22;9047;53.486;10.218;2023-12-20T08:07:35;6.90;99.90
17845;DHT22;9047;53.486;10.218;2023-12-20T08:10:04;6.90;99.90
17845;DHT22;9047;53.486;10.218;2023-12-20T08:12:31;6.90;99.90
17845;DHT22;9047;53.486;10.218;2023-12-20T08:14:59;6.90;99.90
17845;DHT22;9047;53.486;10.218;2023-12-20T08:17:26;7.00;99.90
17845;DHT22;9047;53.486;10.218;2023-12-20T08:19:54;7.00;99.90
17845;DHT22;9047;53.486;10.218;2023-12-20T08:22:22;7.00;99.90
17845;DHT22;9047;53.486;10.218;2023-12-20T08:24:50;7.00;99.90
17845;DHT22;9047;53.486;10.218;2023-12-20T08:27:18;7.00;99.90
17845;DHT22;9047;53.486;10.218;2023-12-20T08:29:47;7.00;99.90
17845;DHT22;9047;53.486;10.218;2023-12-20T08:32:16;7.10;99.90
17845;DHT22;9047;53.486;10.218;2023-12-20T08:34:45;7.10;99.90
17845;DHT22;9047;53.486;10.218;2023-12-20T08:37:13;7.10;99.90
17845;DHT22;9047;53.486;10.218;2023-12-20T08:39:41;7.10;99.90
17845;DHT22;9047;53.486;10.218;2023-12-20T08:42:11;7.20;99.90
17845;DHT22;9047;53.486;10.218;2023-12-20T08:44:40;7.30;99.90
17845;DHT22;9047;53.486;10.218;2023-12-20T08:47:07;7.30;99.90
17845;DHT22;9047;53.486;10.218;2023-12-20T08:49:38;7.40;99.90
17845;DHT22;9047;53.486;10.218;2023-12-20T08:52:05;7.40;99.90
17845;DHT22;9047;53.486;10.218;2023-12-20T08:54:37;7.50;99.90
17845;DHT22;9047;53.486;10.218;2023-12-20T08:57:04;7.50;99.90
17845;DHT22;9047;53.486;10.218;2023-12-20T08:59:32;7.60;99.90
17845;DHT22;9047;53.486;10.218;2023-12-20T09:01:59;7.60;99.90
17845;DHT22;9047;53.486;10.218;2023-12-20T09:04:26;7.70;99.90
17845;DHT22;9047;53.486;10.218;2023-12-20T09:06:54;7.70;99.90
17845;DHT22;9047;53.486;10.218;2023-12-20T09:09:23;7.80;99.90
17845;DHT22;9047;53.486;10.218;2023-12-20T09:11:51;7.70;99.90
17845;DHT22;9047;53.486;10.218;2023-12-20T09:14:18;7.70;99.90
17845;DHT22;9047;53.486;10.218;2023-12-20T09:16:46;7.50;99.90
17845;DHT22;9047;53.486;10.218;2023-12-20T09:19:16;7.50;99.90
17845;DHT22;9047;53.486;10.218;2023-12-20T09:21:44;7.30;99.90
17845;DHT22;9047;53.486;10.218;2023-12-20T09:24:10;7.30;99.90
17845;DHT22;9047;53.486;10.218;2023-12-20T09:26:38;7.20;99.90
17845;DHT22;9047;53.486;10.218;2023-12-20T09:29:09;7.10;99.90
17845;DHT22;9047;53.486;10.218;2023-12-20T09:31:40;7.10;99.90
17845;DHT22;9047;53.486;10.218;2023-12-20T09:34:13;7.00;99.90
17845;DHT22;9047;53.486;10.218;2023-12-20T09:36:41;6.90;99.90
17845;DHT22;9047;53.486;10.218;2023-12-20T09:39:15;6.80;99.90
17845;DHT22;9047;53.486;10.218;2023-12-20T09:41:45;6.70;99.90
17845;DHT22;9047;53.486;10.218;2023-12-20T09:44:16;6.50;99.90
17845;DHT22;9047;53.486;10.218;2023-12-20T09:46:49;6.50;99.90
17845;DHT22;9047;53.486;10.218;2023-12-20T09:49:18;6.50;99.90
17845;DHT22;9047;53.486;10.218;2023-12-20T09:51:46;6.50;99.90
17845;DHT22;9047;53.486;10.218;2023-12-20T09:54:14;6.40;99.90
17845;DHT22;9047;53.486;10.218;2023-12-20T09:56:42;6.50;99.90
17845;DHT22;9047;53.486;10.218;2023-12-20T09:59:10;6.50;99.90
17845;DHT22;9047;53.486;10.218;2023-12-20T10:01:39;6.50;99.90
17845;DHT22;9047;53.486;10.218;2023-12-20T10:04:08;6.60;99.90
17845;DHT22;9047;53.486;10.218;2023-12-20T10:06:38;6.60;99.90
17845;DHT22;9047;53.486;10.218;2023-12-20T10:09:07;6.60;99.90
17845;DHT22;9047;53.486;10.218;2023-12-20T10:11:35;6.50;99.90
17845;DHT22;9047;53.486;10.218;2023-12-20T10:14:04;6.50;99.90
17845;DHT22;9047;53.486;10.218;2023-12-20T10:16:32;6.50;99.90
17845;DHT22;9047;53.486;10.218;2023-12-20T10:19:00;6.50;99.90
17845;DHT22;9047;53.486;10.218;2023-12-20T10:21:29;6.50;99.90
17845;DHT22;9047;53.486;10.218;2023-12-20T10:23:57;6.40;99.90
17845;DHT22;9047;53.486;10.218;2023-12-20T10:26:25;6.40;99.90
17845;DHT22;9047;53.486;10.218;2023-12-20T10:28:54;6.40;99.90
17845;DHT22;9047;53.486;10.218;2023-12-20T10:31:29;6.40;99.90
17845;DHT22;9047;53.486;10.218;2023-12-20T10:33:57;6.30;99.90
17845;DHT22;9047;53.486;10.218;2023-12-20T10:36:30;6.40;99.90
17845;DHT22;9047;53.486;10.218;2023-12-20T10:38:58;6.40;99.90
17845;DHT22;9047;53.486;10.218;2023-12-20T10:41:26;6.40;99.90
17845;DHT22;9047;53.486;10.218;2023-12-20T10:43:57;6.40;99.90
17845;DHT22;9047;53.486;10.218;2023-12-20T10:46:26;6.40;99.90
17845;DHT22;9047;53.486;10.218;2023-12-20T10:48:54;6.40;99.90
17845;DHT22;9047;53.486;10.218;2023-12-20T10:51:22;6.50;99.90
17845;DHT22;9047;53.486;10.218;2023-12-20T10:53:54;6.50;99.90
17845;DHT22;9047;53.486;10.218;2023-12-20T10:56:22;6.60;99.90
17845;DHT22;9047;53.486;10.218;2023-12-20T10:58:54;6.60;99.90
17845;DHT22;9047;53.486;10.218;2023-12-20T11:01:24;6.60;99.90
17845;DHT22;9047;53.486;10.218;2023-12-20T11:03:52;6.70;99.90
17845;DHT22;9047;53.486;10.218;2023-12-20T11:06:27;6.80;99.90
17845;DHT22;9047;53.486;10.218;2023-12-20T11:09:06;6.90;99.90
17845;DHT22;9047;53.486;10.218;2023-12-20T11:12:05;6.90;99.90
17845;DHT22;9047;53.486;10.218;2023-12-20T11:14:41;6.80;99.90
17845;DHT22;9047;53.486;10.218;2023-12-20T11:17:12;6.70;99.90
17845;DHT22;9047;53.486;10.218;2023-12-20T11:20:05;6.70;99.90
17845;DHT22;9047;53.486;10.218;2023-12-20T11:22:34;6.70;99.90
17845;DHT22;9047;53.486;10.218;2023-12-20T11:25:06;6.70;99.90
17845;DHT22;9047;53.486;10.218;2023-12-20T11:27:40;6.70;99.90
17845;DHT22;9047;53.486;10.218;2023-12-20T11:30:09;6.70;99.90
17845;DHT22;9047;53.486;10.218;2023-12-20T11:32:37;6.70;99.90
17845;DHT22;9047;53.486;10.218;2023-12-20T11:35:20;6.80;99.90
17845;DHT22;9047;53.486;10.218;2023-12-20T11:37:49;6.80;99.90
17845;DHT22;9047;53.486;10.218;2023-12-20T11:40:19;6.80;99.90
17845;DHT22;9047;53.486;10.218;2023-12-20T11:42:51;6.90;99.90
17845;DHT22;9047;53.486;10.218;2023-12-20T11:45:20;6.90;99.90
17845;DHT22;9047;53.486;10.218;2023-12-20T11:47:49;6.90;99.90
17845;DHT22;9047;53.486;10.218;2023-12-20T11:50:16;6.90;99.90
17845;DHT22;9047;53.486;10.218;2023-12-20T11:52:43;6.90;99.90
17845;DHT22;9047;53.486;10.218;2023-12-20T11:55:10;6.80;99.90
17845;DHT22;9047;53.486;10.218;2023-12-20T11:57:42;6.90;99.90
17845;DHT22;9047;53.486;10.218;2023-12-20T12:00:11;6.80;99.90
17845;DHT22;9047;53.486;10.218;2023-12-20T12:02:39;6.70;99.90
17845;DHT22;9047;53.486;10.218;2023-12-20T12:05:08;6.70;99.90
17845;DHT22;9047;53.486;10.218;2023-12-20T12:07:37;6.70;99.90
17845;DHT22;9047;53.486;10.218;2023-12-20T12:10:05;6.70;99.90
17845;DHT22;9047;53.486;10.218;2023-12-20T12:12:34;6.70;99.90
17845;DHT22;9047;53.486;10.218;2023-12-20T12:15:04;6.70;99.90
17845;DHT22;9047;53.486;10.218;2023-12-20T12:17:35;6.80;99.90
17845;DHT22;9047;53.486;10.218;2023-12-20T12:20:03;6.80;99.90
17845;DHT22;9047;53.486;10.218;2023-12-20T12:22:30;6.80;99.90
17845;DHT22;9047;53.486;10.218;2023-12-20T12:25:10;6.70;99.90
17845;DHT22;9047;53.486;10.218;2023-12-20T12:27:40;6.60;99.90
17845;DHT22;9047;53.486;10.218;2023-12-20T12:30:18;6.50;99.90
17845;DHT22;9047;53.486;10.218;2023-12-20T12:32:47;6.40;99.90
17845;DHT22;9047;53.486;10.218;2023-12-20T12:35:18;6.40;99.90
17845;DHT22;9047;53.486;10.218;2023-12-20T12:37:53;6.30;99.90
17845;DHT22;9047;53.486;10.218;2023-12-20T12:40:35;6.30;99.90
17845;DHT22;9047;53.486;10.218;2023-12-20T12:43:08;6.40;99.90
17845;DHT22;9047;53.486;10.218;2023-12-20T12:48:43;6.50;99.90
17845;DHT22;9047;53.486;10.218;2023-12-20T12:51:12;6.60;99.90
17845;DHT22;9047;53.486;10.218;2023-12-20T12:53:40;6.60;99.90
17845;DHT22;9047;53.486;10.218;2023-12-20T12:56:08;6.70;99.90
17845;DHT22;9047;53.486;10.218;2023-12-20T12:58:35;6.80;99.90
17845;DHT22;9047;53.486;10.218;2023-12-20T13:01:03;6.80;99.90
17845;DHT22;9047;53.486;10.218;2023-12-20T13:03:34;6.90;99.90
17845;DHT22;9047;53.486;10.218;2023-12-20T13:06:03;7.00;99.90
17845;DHT22;9047;53.486;10.218;2023-12-20T13:08:34;7.10;99.90
17845;DHT22;9047;53.486;10.218;2023-12-20T13:11:04;7.20;99.90
17845;DHT22;9047;53.486;10.218;2023-12-20T13:13:31;7.20;99.90
17845;DHT22;9047;53.486;10.218;2023-12-20T13:15:58;7.20;99.90
17845;DHT22;9047;53.486;10.218;2023-12-20T13:18:28;7.20;99.90
17845;DHT22;9047;53.486;10.218;2023-12-20T13:20:55;7.20;99.90
17845;DHT22;9047;53.486;10.218;2023-12-20T13:23:40;7.30;99.90
17845;DHT22;9047;53.486;10.218;2023-12-20T13:26:16;7.30;99.90
17845;DHT22;9047;53.486;10.218;2023-12-20T13:28:44;7.30;99.90
17845;DHT22;9047;53.486;10.218;2023-12-20T13:31:11;7.30;99.90
17845;DHT22;9047;53.486;10.218;2023-12-20T13:33:39;7.30;99.90
17845;DHT22;9047;53.486;10.218;2023-12-20T13:36:08;7.30;99.90
17845;DHT22;9047;53.486;10.218;2023-12-20T13:38:40;7.30;99.90
17845;DHT22;9047;53.486;10.218;2023-12-20T13:41:10;7.30;99.90
17845;DHT22;9047;53.486;10.218;2023-12-20T13:43:48;7.20;99.90
17845;DHT22;9047;53.486;10.218;2023-12-20T13:46:16;7.20;99.90
17845;DHT22;9047;53.486;10.218;2023-12-20T13:48:43;7.00;99.90
17845;DHT22;9047;53.486;10.218;2023-12-20T13:51:11;6.90;99.90
17845;DHT22;9047;53.486;10.218;2023-12-20T13:53:40;6.90;99.90
17845;DHT22;9047;53.486;10.218;2023-12-20T13:56:13;6.90;99.90
17845;DHT22;9047;53.486;10.218;2023-12-20T13:58:39;6.80;99.90
17845;DHT22;9047;53.486;10.218;2023-12-20T14:01:10;6.70;99.90
17845;DHT22;9047;53.486;10.218;2023-12-20T14:03:37;6.70;99.90
17845;DHT22;9047;53.486;10.218;2023-12-20T14:06:06;6.60;99.90
17845;DHT22;9047;53.486;10.218;2023-12-20T14:08:34;6.60;99.90
17845;DHT22;9047;53.486;10.218;2023-12-20T14:11:05;6.60;99.90
17845;DHT22;9047;53.486;10.218;2023-12-20T14:13:37;6.50;99.90
17845;DHT22;9047;53.486;10.218;2023-12-20T14:16:04;6.60;99.90
17845;DHT22;9047;53.486;10.218;2023-12-20T14:18:31;6.70;99.90
17845;DHT22;9047;53.486;10.218;2023-12-20T14:20:59;6.70;99.90
17845;DHT22;9047;53.486;10.218;2023-12-20T14:23:25;6.60;99.90
17845;DHT22;9047;53.486;10.218;2023-12-20T14:25:53;6.70;99.90
17845;DHT22;9047;53.486;10.218;2023-12-20T14:28:23;6.70;99.90
17845;DHT22;9047;53.486;10.218;2023-12-20T14:30:51;6.70;99.90
17845;DHT22;9047;53.486;10.218;2023-12-20T14:33:21;6.70;99.90
17845;DHT22;9047;53.486;10.218;2023-12-20T14:35:48;6.70;99.90
17845;DHT22;9047;53.486;10.218;2023-12-20T14:38:17;6.70;99.90
17845;DHT22;9047;53.486;10.218;2023-12-20T14:40:45;6.80;99.90
17845;DHT22;9047;53.486;10.218;2023-12-20T14:43:12;6.70;99.90
17845;DHT22;9047;53.486;10.218;2023-12-20T14:45:41;6.70;99.90
17845;DHT22;9047;53.486;10.218;2023-12-20T14:48:12;6.70;99.90
17845;DHT22;9047;53.486;10.218;2023-12-20T14:50:40;6.70;99.90
17845;DHT22;9047;53.486;10.218;2023-12-20T14:53:09;6.70;99.90
17845;DHT22;9047;53.486;10.218;2023-12-20T14:55:36;6.80;99.90
17845;DHT22;9047;53.486;10.218;2023-12-20T14:58:04;6.80;99.90
17845;DHT22;9047;53.486;10.218;2023-12-20T15:00:32;6.70;99.90
17845;DHT22;9047;53.486;10.218;2023-12-20T15:03:02;6.70;99.90
17845;DHT22;9047;53.486;10.218;2023-12-20T15:05:33;6.60;99.90
17845;DHT22;9047;53.486;10.218;2023-12-20T15:08:01;6.60;99.90
17845;DHT22;9047;53.486;10.218;2023-12-20T15:10:28;6.50;99.90
17845;DHT22;9047;53.486;10.218;2023-12-20T15:12:56;6.50;99.90
17845;DHT22;9047;53.486;10.218;2023-12-20T15:15:22;6.40;99.90
17845;DHT22;9047;53.486;10.218;2023-12-20T15:17:50;6.40;99.90
17845;DHT22;9047;53.486;10.218;2023-12-20T15:20:19;6.40;99.90
17845;DHT22;9047;53.486;10.218;2023-12-20T15:22:50;6.30;99.90
17845;DHT22;9047;53.486;10.218;2023-12-20T15:25:21;6.30;99.90
17845;DHT22;9047;53.486;10.218;2023-12-20T15:27:48;6.30;99.90
17845;DHT22;9047;53.486;10.218;2023-12-20T15:30:18;6.20;99.90
17845;DHT22;9047;53.486;10.218;2023-12-20T15:32:46;6.20;99.90
17845;DHT22;9047;53.486;10.218;2023-12-20T15:35:13;6.30;99.90
17845;DHT22;9047;53.486;10.218;2023-12-20T15:37:44;6.20;99.90
17845;DHT22;9047;53.486;10.218;2023-12-20T15:40:11;6.20;99.90
17845;DHT22;9047;53.486;10.218;2023-12-20T15:42:38;6.10;99.90
17845;DHT22;9047;53.486;10.218;2023-12-20T15:45:08;6.10;99.90
17845;DHT22;9047;53.486;10.218;2023-12-20T15:47:37;6.00;99.90
17845;DHT22;9047;53.486;10.218;2023-12-20T15:50:06;6.00;99.90
17845;DHT22;9047;53.486;10.218;2023-12-20T15:52:38;5.90;99.90
17845;DHT22;9047;53.486;10.218;2023-12-20T15:55:07;5.90;99.90
17845;DHT22;9047;53.486;10.218;2023-12-20T15:57:35;5.80;99.90
17845;DHT22;9047;53.486;10.218;2023-12-20T16:00:04;5.80;99.90
17845;DHT22;9047;53.486;10.218;2023-12-20T16:02:32;5.80;99.90